Time;durP1;ratioP1;P1;durP2;ratioP2;P2;SDS_P1;SDS_P2;PMS_P1;PMS_P2;Temp;Humidity;BMP_temperature;BMP_pressure;BME280_temperature;BME280_humidity;BME280_pressure;Samples;Min_cycle;Max_cycle;Signal;HPM_P1;HPM_P2
2022/05/06 00:00:01;;;;;;;10.55;4.38;;;12.10;99.90;;;;;;6323869;28;20246;-66
2022/05/06 00:03:15;;;;;;;6.70;3.90;;;12.10;99.90;;;;;;6323165;28;20235;-65
2022/05/06 00:09:47;;;;;;;8.02;4.65;;;12.00;99.90;;;;;;6322559;28;20581;-66
2022/05/06 00:12:52;;;;;;;9.25;4.57;;;12.10;99.90;;;;;;6300233;28;20199;-65
2022/05/06 00:15:58;;;;;;;8.65;4.47;;;12.10;99.90;;;;;;6299322;28;20214;-66
2022/05/06 00:19:03;;;;;;;10.95;4.60;;;12.00;99.90;;;;;;6297786;28;20262;-67
2022/05/06 00:22:11;;;;;;;9.77;4.88;;;11.90;99.90;;;;;;6299146;28;20203;-66
2022/05/06 00:25:18;;;;;;;11.52;4.72;;;11.90;99.90;;;;;;6302682;28;20227;-64
2022/05/06 00:28:23;;;;;;;9.48;4.55;;;11.90;99.90;;;;;;6299381;28;20235;-65
2022/05/06 00:31:29;;;;;;;12.70;4.90;;;11.90;99.90;;;;;;6300451;28;20563;-66
2022/05/06 00:34:34;;;;;;;8.95;4.15;;;11.80;99.90;;;;;;6297202;28;20245;-65
2022/05/06 00:37:39;;;;;;;7.40;4.68;;;11.80;99.90;;;;;;6297659;28;20199;-66
2022/05/06 00:40:47;;;;;;;8.02;4.55;;;11.70;99.90;;;;;;6295749;28;20231;-65
2022/05/06 00:43:53;;;;;;;14.40;4.97;;;11.70;99.90;;;;;;6295877;28;20239;-66
2022/05/06 00:47:00;;;;;;;11.82;5.05;;;11.60;99.90;;;;;;6297104;28;20211;-67
2022/05/06 00:50:06;;;;;;;11.95;4.78;;;11.70;99.90;;;;;;6297151;28;20223;-66
2022/05/06 00:53:13;;;;;;;14.85;4.88;;;11.60;99.90;;;;;;6296742;28;20330;-65
2022/05/06 00:56:24;;;;;;;12.73;5.18;;;11.60;99.90;;;;;;6297559;28;20565;-65
2022/05/06 00:59:30;;;;;;;15.98;5.35;;;11.60;99.90;;;;;;6296554;28;20592;-65
2022/05/06 01:02:35;;;;;;;27.27;6.18;;;11.60;99.90;;;;;;6297714;28;20211;-65
2022/05/06 01:05:42;;;;;;;14.52;4.82;;;11.60;99.90;;;;;;6296878;28;20245;-66
2022/05/06 01:08:47;;;;;;;11.20;4.93;;;11.50;99.90;;;;;;6295674;28;20219;-67
2022/05/06 01:11:55;;;;;;;9.70;5.07;;;11.40;99.90;;;;;;6311491;28;20199;-65
2022/05/06 01:15:00;;;;;;;7.70;4.80;;;11.40;99.90;;;;;;6320903;28;20260;-66
2022/05/06 01:18:15;;;;;;;5.22;4.82;;;11.30;99.90;;;;;;6321045;28;20222;-66
2022/05/06 01:21:25;;;;;;;8.63;4.60;;;11.30;99.90;;;;;;6321245;28;20202;-65
2022/05/06 01:24:32;;;;;;;5.45;4.53;;;11.30;99.90;;;;;;6322155;28;20241;-66
2022/05/06 01:27:40;;;;;;;9.57;5.20;;;11.30;99.90;;;;;;6321051;28;20202;-66
2022/05/06 01:30:48;;;;;;;7.18;4.50;;;11.30;99.90;;;;;;6321200;28;20548;-66
2022/05/06 01:33:55;;;;;;;14.40;4.20;;;11.20;99.90;;;;;;6321265;28;20629;-66
2022/05/06 01:37:04;;;;;;;8.00;4.25;;;11.20;99.90;;;;;;6320466;28;20222;-67
2022/05/06 01:40:15;;;;;;;4.05;3.65;;;11.20;99.90;;;;;;6320101;28;20232;-65
2022/05/06 01:43:39;;;;;;;5.50;3.58;;;11.30;99.90;;;;;;6325171;28;20224;-67
2022/05/06 01:46:44;;;;;;;8.65;3.80;;;11.20;99.90;;;;;;6325200;28;20473;-66
2022/05/06 01:50:06;;;;;;;5.07;3.55;;;11.20;99.90;;;;;;6324707;28;20222;-65
2022/05/06 01:53:14;;;;;;;3.65;3.38;;;11.10;99.90;;;;;;6324720;28;20222;-66
2022/05/06 01:56:23;;;;;;;5.47;3.20;;;11.10;99.90;;;;;;6325098;28;20207;-66
2022/05/06 01:59:30;;;;;;;3.72;3.55;;;11.00;99.90;;;;;;6324042;28;20235;-67
2022/05/06 02:02:48;;;;;;;3.90;3.58;;;11.00;99.90;;;;;;6328520;28;20202;-66
2022/05/06 02:06:01;;;;;;;10.10;3.50;;;11.00;99.90;;;;;;6329307;28;20318;-66
2022/05/06 02:09:09;;;;;;;7.57;3.30;;;11.00;99.90;;;;;;6329084;28;20226;-65
2022/05/06 02:12:36;;;;;;;8.27;4.15;;;11.00;99.90;;;;;;6307538;28;20206;-65
2022/05/06 02:16:05;;;;;;;7.22;3.47;;;11.00;99.90;;;;;;6292282;28;20549;-64
2022/05/06 02:19:34;;;;;;;12.57;3.63;;;11.00;99.90;;;;;;6300357;28;20235;-66
2022/05/06 02:23:12;;;;;;;4.35;3.08;;;11.00;99.90;;;;;;6295808;28;20227;-65
2022/05/06 02:26:44;;;;;;;4.43;3.45;;;11.00;99.90;;;;;;6300493;28;20673;-65
2022/05/06 02:33:23;;;;;;;3.90;3.00;;;11.00;99.90;;;;;;6298758;28;20246;-66
2022/05/06 02:36:54;;;;;;;3.08;2.80;;;11.10;99.90;;;;;;6298678;28;20218;-65
2022/05/06 02:40:17;;;;;;;7.13;3.30;;;11.10;99.90;;;;;;6298960;28;20227;-65
2022/05/06 02:43:23;;;;;;;4.53;3.30;;;11.10;99.90;;;;;;6298262;28;20241;-65
2022/05/06 02:46:33;;;;;;;3.33;2.75;;;11.10;99.90;;;;;;6299165;28;20776;-68
2022/05/06 02:49:39;;;;;;;4.63;2.72;;;11.20;99.90;;;;;;6299751;28;20226;-66
2022/05/06 02:52:48;;;;;;;7.25;3.15;;;11.20;99.90;;;;;;6298191;28;20214;-66
2022/05/06 02:55:53;;;;;;;5.63;3.08;;;11.20;99.90;;;;;;6298860;28;20203;-66
2022/05/06 02:58:58;;;;;;;3.67;3.10;;;11.20;99.90;;;;;;6297775;28;20234;-66
2022/05/06 03:02:09;;;;;;;9.40;3.20;;;11.20;99.90;;;;;;6308621;28;20204;-68
2022/05/06 03:05:16;;;;;;;7.00;3.03;;;11.20;99.90;;;;;;6332098;28;20205;-66
2022/05/06 03:08:22;;;;;;;4.55;2.95;;;11.20;99.90;;;;;;6298295;28;20591;-65
2022/05/06 03:11:28;;;;;;;9.32;3.60;;;11.30;99.90;;;;;;6299040;28;20214;-65
2022/05/06 03:14:40;;;;;;;5.72;2.92;;;11.30;99.90;;;;;;6298114;28;20227;-65
2022/05/06 03:18:05;;;;;;;9.85;3.15;;;11.30;99.90;;;;;;6297638;28;20235;-65
2022/05/06 03:21:11;;;;;;;5.95;3.20;;;11.20;99.90;;;;;;6298274;28;20203;-67
2022/05/06 03:24:16;;;;;;;5.70;4.30;;;11.30;99.90;;;;;;6299725;28;20234;-65
2022/05/06 03:30:45;;;;;;;14.50;3.35;;;11.30;99.90;;;;;;6299779;28;20580;-66
2022/05/06 03:34:07;;;;;;;5.43;2.70;;;11.30;99.90;;;;;;6297514;28;20238;-65
2022/05/06 03:37:19;;;;;;;6.38;3.42;;;11.30;99.90;;;;;;6305490;28;20665;-65
2022/05/06 03:40:27;;;;;;;3.42;2.75;;;11.30;99.90;;;;;;6306460;28;20665;-66
2022/05/06 03:43:33;;;;;;;6.40;3.08;;;11.30;99.90;;;;;;6305777;28;20226;-66
2022/05/06 03:46:49;;;;;;;12.27;3.40;;;11.40;99.90;;;;;;6322360;28;20227;-66
2022/05/06 03:53:27;;;;;;;8.50;3.60;;;11.50;99.90;;;;;;6308020;28;20231;-66
2022/05/06 03:56:34;;;;;;;6.45;3.17;;;11.50;99.90;;;;;;6322574;28;20213;-66
2022/05/06 03:59:44;;;;;;;6.18;3.08;;;11.50;99.90;;;;;;6307875;28;20242;-64
2022/05/06 04:02:54;;;;;;;7.95;3.35;;;11.50;99.90;;;;;;6304928;28;20227;-65
2022/05/06 04:06:05;;;;;;;12.45;3.70;;;11.60;99.90;;;;;;6305312;28;20226;-67
2022/05/06 04:09:12;;;;;;;12.70;3.33;;;11.60;99.90;;;;;;6304894;28;20622;-66
2022/05/06 04:12:21;;;;;;;7.35;2.95;;;11.70;99.90;;;;;;6304774;28;20201;-66
2022/05/06 04:15:32;;;;;;;9.57;3.00;;;11.60;99.90;;;;;;6322299;28;20211;-64
2022/05/06 04:18:39;;;;;;;11.35;3.53;;;11.70;99.90;;;;;;6321288;28;20236;-66
2022/05/06 04:25:20;;;;;;;7.13;2.55;;;11.80;99.90;;;;;;6321308;28;20207;-65
2022/05/06 04:28:39;;;;;;;3.58;3.03;;;11.70;99.90;;;;;;6321533;28;20243;-66
2022/05/06 04:31:45;;;;;;;6.75;2.95;;;11.80;99.90;;;;;;6321964;28;20210;-66
2022/05/06 04:34:51;;;;;;;7.20;3.10;;;11.80;99.90;;;;;;6323100;28;20222;-65
2022/05/06 04:38:00;;;;;;;10.35;2.80;;;11.90;99.90;;;;;;6320964;28;20230;-66
2022/05/06 04:41:09;;;;;;;7.82;3.00;;;12.00;99.90;;;;;;6321238;28;20208;-65
2022/05/06 04:44:15;;;;;;;5.95;2.40;;;11.90;99.90;;;;;;6321296;28;20241;-66
2022/05/06 04:47:21;;;;;;;8.02;2.60;;;12.00;99.90;;;;;;6322272;28;20232;-67
2022/05/06 04:50:27;;;;;;;10.60;2.63;;;12.00;99.90;;;;;;6321926;28;20202;-66
2022/05/06 04:53:34;;;;;;;3.70;2.08;;;12.00;99.90;;;;;;6322281;28;20235;-67
2022/05/06 04:56:40;;;;;;;13.90;2.55;;;12.10;99.90;;;;;;6321780;28;20203;-66
2022/05/06 04:59:54;;;;;;;6.43;2.50;;;12.10;99.90;;;;;;6320251;28;20238;-66
2022/05/06 05:03:01;;;;;;;9.25;2.70;;;12.10;99.90;;;;;;6321843;28;20283;-66
2022/05/06 05:06:08;;;;;;;8.82;2.70;;;11.90;99.90;;;;;;6320852;28;20210;-66
2022/05/06 05:09:16;;;;;;;7.32;2.95;;;11.90;99.90;;;;;;6320668;28;20257;-66
2022/05/06 05:12:24;;;;;;;7.00;2.50;;;11.90;99.90;;;;;;6321872;28;20210;-65
2022/05/06 05:15:31;;;;;;;8.52;3.05;;;12.00;99.90;;;;;;6320008;28;20203;-65
2022/05/06 05:18:36;;;;;;;4.53;2.53;;;12.10;99.90;;;;;;6320055;28;20222;-65
2022/05/06 05:21:42;;;;;;;14.57;3.20;;;12.10;99.90;;;;;;6322241;28;20202;-66
2022/05/06 05:24:50;;;;;;;9.82;2.90;;;12.10;99.90;;;;;;6320116;28;20240;-64
2022/05/06 05:27:55;;;;;;;9.48;2.83;;;12.20;99.90;;;;;;6321262;28;20238;-64
2022/05/06 05:31:06;;;;;;;7.20;2.67;;;12.30;99.90;;;;;;6320925;28;20299;-65
2022/05/06 05:34:15;;;;;;;5.00;3.40;;;12.30;99.90;;;;;;6320301;28;20261;-66
2022/05/06 05:37:22;;;;;;;4.53;2.97;;;12.30;99.90;;;;;;6320945;28;20206;-68
2022/05/06 05:40:33;;;;;;;10.13;3.45;;;12.30;99.90;;;;;;6314914;28;20309;-65
2022/05/06 05:50:30;;;;;;;7.18;3.05;;;12.20;99.90;;;;;;6302791;28;20568;-66
2022/05/06 05:53:40;;;;;;;10.25;3.20;;;12.30;99.90;;;;;;6303117;28;20233;-66
2022/05/06 05:56:46;;;;;;;6.63;2.90;;;12.50;99.90;;;;;;6322990;28;20227;-66
2022/05/06 05:59:52;;;;;;;10.55;3.03;;;12.60;99.90;;;;;;6319430;28;20249;-67
2022/05/06 06:03:00;;;;;;;6.95;3.15;;;12.70;99.90;;;;;;6321929;28;20219;-65
2022/05/06 06:06:08;;;;;;;9.48;2.63;;;12.80;99.90;;;;;;6319611;28;20226;-66
2022/05/06 06:09:14;;;;;;;4.10;2.80;;;12.90;99.90;;;;;;6318921;28;20234;-66
2022/05/06 06:12:22;;;;;;;11.43;3.85;;;12.80;99.90;;;;;;6312372;28;20199;-67
2022/05/06 06:15:28;;;;;;;8.30;2.83;;;12.90;99.90;;;;;;6294286;28;20235;-66
2022/05/06 06:18:35;;;;;;;5.72;2.65;;;12.90;99.90;;;;;;6294048;28;20459;-66
2022/05/06 06:21:40;;;;;;;11.68;2.72;;;13.10;99.90;;;;;;6295212;28;20207;-66
2022/05/06 06:24:46;;;;;;;6.78;2.70;;;13.20;99.90;;;;;;6294253;28;20231;-66
2022/05/06 06:27:53;;;;;;;6.35;2.75;;;13.10;99.90;;;;;;6298469;28;20203;-66
2022/05/06 06:30:58;;;;;;;5.72;3.00;;;13.10;99.90;;;;;;6299064;28;20599;-65
2022/05/06 06:34:03;;;;;;;8.75;2.60;;;13.00;99.90;;;;;;6298396;28;20231;-65
2022/05/06 06:37:13;;;;;;;8.73;2.80;;;13.00;99.90;;;;;;6299400;28;20210;-66
2022/05/06 06:40:24;;;;;;;4.75;2.78;;;13.00;99.90;;;;;;6298656;28;20235;-66
2022/05/06 06:43:31;;;;;;;7.88;3.03;;;13.00;99.90;;;;;;6298781;28;20222;-66
2022/05/06 06:46:43;;;;;;;12.88;2.80;;;13.00;99.90;;;;;;6308472;28;20203;-66
2022/05/06 06:50:08;;;;;;;2.88;2.60;;;12.90;99.90;;;;;;6325034;28;20227;-67
2022/05/06 06:53:30;;;;;;;4.15;2.50;;;13.10;99.90;;;;;;6323614;28;20202;-65
2022/05/06 06:56:36;;;;;;;6.80;2.88;;;13.20;99.90;;;;;;6325489;28;20202;-66
2022/05/06 06:59:42;;;;;;;9.20;2.83;;;13.20;99.90;;;;;;6332073;28;20585;-68
2022/05/06 07:02:48;;;;;;;9.32;2.63;;;13.20;99.90;;;;;;6350373;28;20212;-65
2022/05/06 07:12:39;;;;;;;4.90;2.53;;;13.30;99.90;;;;;;6350801;28;20688;-65
2022/05/06 07:15:46;;;;;;;8.60;2.63;;;13.40;99.90;;;;;;6331499;28;20691;-65
2022/05/06 07:18:51;;;;;;;7.95;2.65;;;13.60;99.90;;;;;;6349637;28;20222;-66
2022/05/06 07:21:57;;;;;;;6.55;2.63;;;13.60;99.90;;;;;;6351543;28;20561;-67
2022/05/06 07:25:02;;;;;;;7.32;2.33;;;13.80;99.90;;;;;;6349881;28;20233;-67
2022/05/06 07:28:08;;;;;;;9.98;2.47;;;13.70;99.90;;;;;;6351845;28;20208;-66
2022/05/06 07:31:15;;;;;;;5.80;2.58;;;13.90;99.90;;;;;;6351897;28;20237;-66
2022/05/06 07:34:21;;;;;;;5.03;2.33;;;14.10;99.50;;;;;;6351170;28;20248;-66
2022/05/06 07:37:32;;;;;;;5.18;2.45;;;14.10;99.60;;;;;;6351677;28;20205;-66
2022/05/06 07:40:37;;;;;;;6.22;2.38;;;14.20;99.10;;;;;;6331318;28;20247;-67
2022/05/06 07:43:48;;;;;;;6.47;2.30;;;14.30;99.10;;;;;;6350082;28;20233;-66
2022/05/06 07:46:55;;;;;;;4.00;2.33;;;14.30;98.70;;;;;;6339371;28;20199;-66
2022/05/06 07:50:00;;;;;;;4.82;2.25;;;14.30;99.10;;;;;;6324648;28;20245;-66
2022/05/06 07:53:06;;;;;;;10.25;2.50;;;14.30;98.90;;;;;;6325774;28;20225;-68
2022/05/06 07:56:14;;;;;;;9.55;2.70;;;14.30;98.50;;;;;;6324284;28;20235;-67
2022/05/06 07:59:20;;;;;;;6.28;2.40;;;14.30;98.40;;;;;;6323274;28;20718;-65
2022/05/06 08:05:56;;;;;;;7.10;2.25;;;14.40;98.20;;;;;;6323360;28;20231;-66
2022/05/06 08:09:02;;;;;;;7.13;2.47;;;14.50;98.20;;;;;;6322717;28;20227;-66
2022/05/06 08:12:09;;;;;;;5.40;2.85;;;14.50;98.10;;;;;;6323651;28;20649;-66
2022/05/06 08:15:15;;;;;;;3.25;2.40;;;14.50;98.50;;;;;;6322811;28;20222;-66
2022/05/06 08:18:21;;;;;;;6.88;2.00;;;14.40;98.00;;;;;;6322436;28;20205;-66
2022/05/06 08:21:27;;;;;;;3.75;2.28;;;14.50;97.90;;;;;;6323505;28;20211;-66
2022/05/06 08:24:33;;;;;;;2.40;2.20;;;14.60;97.90;;;;;;6322676;28;20226;-66
2022/05/06 08:27:40;;;;;;;8.18;2.05;;;14.60;98.00;;;;;;6323358;28;20653;-66
2022/05/06 08:30:45;;;;;;;9.15;2.63;;;14.60;97.90;;;;;;6323077;28;20254;-66
2022/05/06 08:33:52;;;;;;;8.93;2.35;;;14.60;97.80;;;;;;6322835;28;20236;-65
2022/05/06 08:36:58;;;;;;;3.03;2.15;;;14.70;97.60;;;;;;6323449;28;20198;-66
2022/05/06 08:40:03;;;;;;;2.45;2.03;;;14.80;97.70;;;;;;6322044;28;20687;-66
2022/05/06 08:43:10;;;;;;;4.15;2.10;;;14.90;97.10;;;;;;6323132;28;20210;-65
2022/05/06 08:53:07;;;;;;;4.22;1.90;;;14.80;97.50;;;;;;6347896;28;20201;-64
2022/05/06 08:56:13;;;;;;;4.20;2.25;;;14.80;96.60;;;;;;6347507;28;20237;-66
2022/05/06 08:59:18;;;;;;;8.70;2.40;;;14.80;96.00;;;;;;6346430;28;20596;-66
2022/05/06 09:02:24;;;;;;;2.10;1.95;;;14.70;96.00;;;;;;6347471;28;20619;-66
2022/05/06 09:05:31;;;;;;;7.78;2.60;;;14.90;96.00;;;;;;6347093;28;20230;-67
2022/05/06 09:08:40;;;;;;;7.50;3.42;;;15.00;96.00;;;;;;6347429;28;20230;-67
2022/05/06 09:18:48;;;;;;;4.22;2.20;;;15.00;95.70;;;;;;6328325;28;20697;-66
2022/05/06 09:22:11;;;;;;;8.40;2.28;;;15.10;95.70;;;;;;6347514;28;20611;-67
2022/05/06 09:25:35;;;;;;;10.55;2.42;;;15.10;95.20;;;;;;6347078;28;20226;-67
2022/05/06 09:28:41;;;;;;;9.23;2.30;;;15.10;95.70;;;;;;6346892;28;20233;-67
2022/05/06 09:31:46;;;;;;;4.72;2.17;;;15.30;95.20;;;;;;6347493;28;20222;-67
2022/05/06 09:34:53;;;;;;;3.40;2.10;;;15.30;94.70;;;;;;6346586;28;20248;-66
2022/05/06 09:38:03;;;;;;;7.00;2.30;;;15.30;94.50;;;;;;6346764;28;20202;-67
2022/05/06 09:41:20;;;;;;;2.55;2.20;;;15.40;94.90;;;;;;6346588;28;20264;-67
2022/05/06 09:44:26;;;;;;;6.18;2.03;;;15.40;94.10;;;;;;6346233;28;20586;-66
2022/05/06 09:47:33;;;;;;;3.08;2.03;;;15.40;94.70;;;;;;6312866;28;20199;-66
2022/05/06 09:50:42;;;;;;;5.63;2.67;;;15.40;94.20;;;;;;6324116;28;20234;-69
2022/05/06 09:53:55;;;;;;;4.00;2.00;;;15.40;93.80;;;;;;6340986;28;20728;-66
2022/05/06 09:57:01;;;;;;;4.38;2.17;;;15.50;93.80;;;;;;6326238;28;20206;-67
2022/05/06 10:00:08;;;;;;;6.20;2.30;;;15.60;94.40;;;;;;6323354;28;20231;-66
2022/05/06 10:03:15;;;;;;;2.97;2.10;;;15.60;94.50;;;;;;6325589;28;20217;-67
2022/05/06 10:06:21;;;;;;;6.05;2.10;;;15.70;93.60;;;;;;6326867;28;20220;-66
2022/05/06 10:09:32;;;;;;;5.03;2.00;;;15.80;93.70;;;;;;6326630;28;20222;-67
2022/05/06 10:12:41;;;;;;;2.92;2.22;;;15.80;93.20;;;;;;6326742;28;20230;-65
2022/05/06 10:15:49;;;;;;;5.35;2.22;;;15.80;93.90;;;;;;6325547;28;20240;-67
2022/05/06 10:18:55;;;;;;;4.95;2.17;;;15.90;93.30;;;;;;6325969;28;20554;-67
2022/05/06 10:22:01;;;;;;;8.98;2.30;;;16.00;93.10;;;;;;6326534;28;20214;-66
2022/05/06 10:25:09;;;;;;;3.75;1.98;;;16.20;92.90;;;;;;6325681;28;20689;-66
2022/05/06 10:35:41;;;;;;;9.15;2.10;;;16.40;92.20;;;;;;6326219;28;20272;-67
2022/05/06 10:38:49;;;;;;;6.75;1.90;;;16.40;92.60;;;;;;6325074;28;20222;-68
2022/05/06 10:42:03;;;;;;;5.97;2.33;;;16.40;92.00;;;;;;6325971;28;20213;-66
2022/05/06 10:45:24;;;;;;;5.15;1.88;;;16.50;92.30;;;;;;6325270;28;20575;-66
2022/05/06 10:48:30;;;;;;;6.75;2.00;;;16.60;91.40;;;;;;6348151;28;20199;-66
2022/05/06 10:51:35;;;;;;;2.90;1.65;;;16.60;91.70;;;;;;6327357;28;20231;-66
2022/05/06 10:54:41;;;;;;;4.40;2.10;;;16.60;91.60;;;;;;6326425;28;20234;-67
2022/05/06 10:57:56;;;;;;;2.00;1.90;;;16.70;91.10;;;;;;6327338;28;20213;-67
2022/05/06 11:01:01;;;;;;;10.50;2.60;;;16.80;90.20;;;;;;6329114;28;20243;-66
2022/05/06 11:04:08;;;;;;;2.17;2.05;;;16.90;89.70;;;;;;6337872;28;20329;-65
2022/05/06 11:07:14;;;;;;;2.13;1.83;;;16.90;88.90;;;;;;6337252;28;20203;-65
2022/05/06 11:10:21;;;;;;;2.88;2.00;;;17.00;90.10;;;;;;6331303;28;20230;-66
2022/05/06 11:13:28;;;;;;;2.00;1.80;;;17.00;90.30;;;;;;6330371;28;20249;-67
2022/05/06 11:16:33;;;;;;;7.13;2.05;;;17.10;88.40;;;;;;6324623;28;20198;-66
2022/05/06 11:19:38;;;;;;;5.93;1.50;;;17.10;86.50;;;;;;6324622;28;20226;-67
2022/05/06 11:22:55;;;;;;;1.73;1.63;;;17.20;87.50;;;;;;6324362;28;20210;-67
2022/05/06 11:26:01;;;;;;;7.00;1.75;;;17.30;86.40;;;;;;6324361;28;20234;-68
2022/05/06 11:29:08;;;;;;;7.90;1.67;;;17.40;84.70;;;;;;6325195;27;20226;-66
2022/05/06 11:32:13;;;;;;;3.13;1.50;;;17.40;83.30;;;;;;6325104;28;20616;-67
2022/05/06 11:35:33;;;;;;;7.32;1.55;;;17.40;83.20;;;;;;6324810;28;20520;-66
2022/05/06 11:38:40;;;;;;;4.25;1.80;;;17.50;83.20;;;;;;6324600;28;20226;-66
2022/05/06 11:41:46;;;;;;;2.25;1.92;;;17.50;82.90;;;;;;6324760;28;20216;-67
2022/05/06 11:48:23;;;;;;;5.57;2.38;;;17.60;82.30;;;;;;6300242;28;20215;-67
2022/05/06 11:51:31;;;;;;;1.88;1.58;;;17.70;82.20;;;;;;6299417;28;20617;-68
2022/05/06 11:54:36;;;;;;;1.83;1.70;;;17.70;80.20;;;;;;6298163;28;20235;-66
2022/05/06 11:57:42;;;;;;;3.40;1.70;;;17.60;78.40;;;;;;6298891;28;20206;-67
2022/05/06 12:00:51;;;;;;;2.70;1.50;;;17.70;79.40;;;;;;6298131;28;20235;-66
2022/05/06 12:04:02;;;;;;;5.18;1.70;;;17.70;79.30;;;;;;6298092;28;20249;-66
2022/05/06 12:07:12;;;;;;;7.82;1.85;;;17.80;78.60;;;;;;6298985;28;20203;-66
2022/05/06 12:10:25;;;;;;;3.13;1.92;;;17.70;79.70;;;;;;6298544;28;20227;-67
2022/05/06 12:13:41;;;;;;;5.22;2.30;;;17.70;78.40;;;;;;6297900;28;20685;-67
2022/05/06 12:17:06;;;;;;;2.88;1.63;;;17.50;79.60;;;;;;6298803;28;20230;-66
2022/05/06 12:20:35;;;;;;;4.55;1.70;;;17.40;79.30;;;;;;6298387;28;20232;-67
2022/05/06 12:23:40;;;;;;;4.55;1.88;;;17.50;78.80;;;;;;6298039;28;20231;-67
2022/05/06 12:26:56;;;;;;;1.60;1.52;;;17.40;78.70;;;;;;6297639;28;20206;-67
2022/05/06 12:30:02;;;;;;;1.98;1.50;;;17.40;77.40;;;;;;6297322;28;20246;-66
2022/05/06 12:33:17;;;;;;;1.83;1.55;;;17.50;77.10;;;;;;6297823;28;20227;-66
2022/05/06 12:36:23;;;;;;;1.20;1.20;;;17.60;76.60;;;;;;6297680;28;20207;-65
2022/05/06 12:39:28;;;;;;;7.22;1.70;;;17.60;76.70;;;;;;6297524;28;20234;-66
2022/05/06 12:42:33;;;;;;;4.25;1.73;;;17.70;74.40;;;;;;6297696;28;20203;-66
2022/05/06 12:45:59;;;;;;;2.80;2.05;;;17.80;75.00;;;;;;6300530;28;20214;-66
2022/05/06 12:52:28;;;;;;;2.83;1.77;;;17.90;72.50;;;;;;6323092;28;20203;-66
2022/05/06 12:55:33;;;;;;;8.15;1.80;;;17.90;70.90;;;;;;6322188;27;20226;-65
2022/05/06 12:58:39;;;;;;;10.80;2.00;;;17.80;71.60;;;;;;6322623;28;20252;-66
2022/05/06 13:01:51;;;;;;;4.75;2.20;;;17.90;73.10;;;;;;6322940;28;20677;-67
2022/05/06 13:04:59;;;;;;;7.00;2.30;;;17.80;73.80;;;;;;6322407;28;20697;-66
2022/05/06 13:08:06;;;;;;;6.70;2.22;;;17.90;73.50;;;;;;6322550;28;20656;-66
2022/05/06 13:11:12;;;;;;;7.13;1.85;;;18.00;73.50;;;;;;6322304;28;20689;-66
2022/05/06 13:14:17;;;;;;;3.97;1.70;;;18.10;73.40;;;;;;6321955;28;20241;-66
2022/05/06 13:17:23;;;;;;;7.38;1.70;;;18.30;73.60;;;;;;6322232;28;20202;-68
2022/05/06 13:20:30;;;;;;;3.28;1.75;;;18.20;73.80;;;;;;6322275;28;20226;-66
2022/05/06 13:23:37;;;;;;;2.38;1.90;;;18.40;71.20;;;;;;6321604;27;20202;-67
2022/05/06 13:26:43;;;;;;;4.00;1.80;;;18.60;68.50;;;;;;6321152;28;20653;-66
2022/05/06 13:29:51;;;;;;;1.58;1.52;;;18.70;67.80;;;;;;6320435;28;20229;-65
2022/05/06 13:32:56;;;;;;;3.40;1.60;;;18.70;66.30;;;;;;6322276;28;20210;-67
2022/05/06 13:36:03;;;;;;;2.22;1.60;;;18.90;65.40;;;;;;6321108;28;20328;-66
2022/05/06 13:39:08;;;;;;;9.65;1.80;;;19.00;63.90;;;;;;6321695;28;20245;-67
2022/05/06 13:42:14;;;;;;;3.70;1.60;;;19.10;64.60;;;;;;6321856;28;20211;-68
2022/05/06 13:45:19;;;;;;;2.58;1.50;;;19.20;64.00;;;;;;6322027;28;20710;-68
2022/05/06 13:48:25;;;;;;;2.63;1.95;;;19.30;64.10;;;;;;6297514;28;20195;-67
2022/05/06 13:51:31;;;;;;;6.10;1.73;;;19.40;64.80;;;;;;6296598;28;20203;-67
2022/05/06 13:54:36;;;;;;;2.47;1.60;;;19.40;62.10;;;;;;6296667;28;20258;-66
2022/05/06 14:01:24;;;;;;;7.85;2.05;;;21.30;55.40;;;;;;6296115;28;20249;-66
2022/05/06 14:04:30;;;;;;;3.08;1.80;;;21.40;55.10;;;;;;6296057;28;20249;-67
2022/05/06 14:08:00;;;;;;;9.75;2.00;;;21.20;54.40;;;;;;6297563;28;20208;-67
2022/05/06 14:11:06;;;;;;;4.53;1.75;;;20.60;56.00;;;;;;6296411;28;20223;-67
2022/05/06 14:14:12;;;;;;;4.00;1.70;;;20.30;57.30;;;;;;6296101;28;20250;-66
2022/05/06 14:17:19;;;;;;;8.27;2.10;;;20.20;57.40;;;;;;6296714;28;20214;-66
2022/05/06 14:20:24;;;;;;;2.63;1.80;;;20.00;57.90;;;;;;6296361;28;20571;-67
2022/05/06 14:23:32;;;;;;;3.45;1.85;;;19.70;58.20;;;;;;6295552;28;20569;-67
2022/05/06 14:26:38;;;;;;;6.72;1.92;;;19.50;58.50;;;;;;6296616;28;20215;-67
2022/05/06 14:29:44;;;;;;;3.42;1.60;;;19.30;59.30;;;;;;6295836;28;20247;-67
2022/05/06 14:32:49;;;;;;;3.35;1.73;;;19.30;59.60;;;;;;6296592;28;20204;-67
2022/05/06 14:35:54;;;;;;;8.07;2.10;;;19.30;59.60;;;;;;6295337;28;20537;-67
2022/05/06 14:39:01;;;;;;;3.47;1.98;;;19.30;60.00;;;;;;6295082;28;20226;-66
2022/05/06 14:42:07;;;;;;;14.40;2.45;;;19.30;60.60;;;;;;6295664;28;20207;-68
2022/05/06 14:45:13;;;;;;;3.45;1.95;;;19.40;60.40;;;;;;6295371;28;20723;-66
2022/05/06 14:48:18;;;;;;;10.63;2.17;;;19.50;60.00;;;;;;6319365;28;20214;-67
2022/05/06 14:51:25;;;;;;;8.38;1.88;;;19.50;59.90;;;;;;6325707;28;20205;-66
2022/05/06 14:54:31;;;;;;;6.47;1.77;;;19.60;58.90;;;;;;6325254;28;20246;-67
2022/05/06 14:57:37;;;;;;;4.60;2.10;;;19.60;58.40;;;;;;6325454;28;20199;-67
2022/05/06 15:00:43;;;;;;;8.65;1.85;;;19.60;58.90;;;;;;6324578;28;20241;-67
2022/05/06 15:03:48;;;;;;;8.57;2.47;;;19.30;60.10;;;;;;6306811;28;20237;-66
2022/05/06 15:06:53;;;;;;;4.53;2.15;;;19.20;61.80;;;;;;6324889;28;20321;-65
2022/05/06 15:10:00;;;;;;;7.22;2.45;;;19.10;62.10;;;;;;6324435;28;20604;-67
2022/05/06 15:13:06;;;;;;;6.03;2.10;;;19.20;62.50;;;;;;6324719;28;20198;-66
2022/05/06 15:16:12;;;;;;;10.23;2.22;;;19.20;62.80;;;;;;6323805;28;20268;-65
2022/05/06 15:19:28;;;;;;;5.70;2.28;;;19.10;62.20;;;;;;6324590;28;20237;-67
2022/05/06 15:22:35;;;;;;;6.68;2.20;;;19.20;61.20;;;;;;6325043;28;20210;-67
2022/05/06 15:25:42;;;;;;;8.40;2.25;;;19.10;60.80;;;;;;6324591;28;20233;-66
2022/05/06 15:28:48;;;;;;;6.03;2.25;;;19.10;60.30;;;;;;6323931;28;20234;-67
2022/05/06 15:31:53;;;;;;;5.43;2.08;;;19.10;60.50;;;;;;6324988;28;20617;-66
2022/05/06 15:34:58;;;;;;;12.25;2.70;;;19.00;60.40;;;;;;6324251;28;20233;-66
2022/05/06 15:38:05;;;;;;;10.27;2.42;;;19.00;60.30;;;;;;6324797;28;20202;-67
2022/05/06 15:41:11;;;;;;;9.43;2.63;;;18.90;60.60;;;;;;6323576;28;20237;-67
2022/05/06 15:44:17;;;;;;;6.38;2.15;;;18.80;60.50;;;;;;6323881;28;20235;-69
2022/05/06 15:47:23;;;;;;;5.65;2.15;;;18.60;61.90;;;;;;6309686;28;20207;-67
2022/05/06 15:50:29;;;;;;;4.57;2.28;;;18.70;61.10;;;;;;6298897;28;20604;-66
2022/05/06 15:53:34;;;;;;;3.95;2.35;;;18.80;60.00;;;;;;6298434;28;20214;-66
2022/05/06 15:56:41;;;;;;;4.10;2.30;;;18.80;59.60;;;;;;6298940;28;20287;-66
2022/05/06 15:59:47;;;;;;;5.53;2.22;;;18.80;60.40;;;;;;6280356;28;20708;-66
2022/05/06 16:02:52;;;;;;;8.90;2.22;;;18.70;60.40;;;;;;6298848;28;20691;-67
2022/05/06 16:05:58;;;;;;;6.00;2.63;;;18.70;60.10;;;;;;6298330;28;20660;-67
2022/05/06 16:09:11;;;;;;;5.93;2.25;;;18.60;60.60;;;;;;6298448;28;20550;-66
2022/05/06 16:12:18;;;;;;;5.78;2.20;;;18.50;60.10;;;;;;6299741;28;20214;-68
2022/05/06 16:15:25;;;;;;;2.50;2.05;;;18.50;60.20;;;;;;6290281;28;20265;-67
2022/05/06 16:18:31;;;;;;;19.92;2.95;;;18.40;60.20;;;;;;6299233;28;20200;-67
2022/05/06 16:21:36;;;;;;;4.40;2.67;;;18.40;60.70;;;;;;6300942;28;20211;-66
2022/05/06 16:24:42;;;;;;;7.60;2.90;;;18.30;61.40;;;;;;6301473;28;20237;-65
2022/05/06 16:27:50;;;;;;;16.17;2.97;;;18.20;61.60;;;;;;6312468;28;20213;-66
2022/05/06 16:30:55;;;;;;;4.28;2.15;;;18.20;62.30;;;;;;6311865;28;20239;-65
2022/05/06 16:37:25;;;;;;;6.22;2.38;;;17.90;62.10;;;;;;6298782;28;20234;-66
2022/05/06 16:40:31;;;;;;;7.57;2.30;;;17.90;62.40;;;;;;6298147;28;20234;-67
2022/05/06 16:43:38;;;;;;;8.90;2.85;;;17.90;62.10;;;;;;6297527;28;20664;-67
2022/05/06 16:46:43;;;;;;;3.40;2.20;;;18.00;62.20;;;;;;6307283;28;20217;-66
2022/05/06 16:49:49;;;;;;;18.08;2.70;;;17.90;62.30;;;;;;6322706;28;20249;-67
2022/05/06 16:52:54;;;;;;;6.03;2.15;;;17.70;61.80;;;;;;6323170;28;20202;-67
2022/05/06 16:56:00;;;;;;;4.47;2.08;;;17.60;61.80;;;;;;6321825;28;20234;-67
2022/05/06 16:59:07;;;;;;;3.08;1.95;;;17.60;62.50;;;;;;6322357;28;20230;-67
2022/05/06 17:02:12;;;;;;;4.00;2.10;;;17.60;62.40;;;;;;6322855;28;20203;-67
2022/05/06 17:05:18;;;;;;;6.93;1.90;;;17.60;61.90;;;;;;6322628;28;20236;-67
2022/05/06 17:08:29;;;;;;;4.28;2.28;;;17.60;62.20;;;;;;6322316;28;20206;-67
2022/05/06 17:11:34;;;;;;;5.57;2.53;;;17.50;62.10;;;;;;6322286;28;20198;-67
2022/05/06 17:14:41;;;;;;;2.10;1.85;;;17.50;62.60;;;;;;6320862;28;20603;-67
2022/05/06 17:17:49;;;;;;;3.90;2.28;;;17.40;62.20;;;;;;6322750;28;20574;-67
2022/05/06 17:20:56;;;;;;;3.78;2.13;;;17.40;62.50;;;;;;6322044;28;20233;-66
2022/05/06 17:24:01;;;;;;;7.75;2.20;;;17.30;62.90;;;;;;6324310;28;20226;-67
2022/05/06 17:27:07;;;;;;;6.88;2.42;;;17.20;63.50;;;;;;6324220;28;20280;-66